Effective Sunday, March 17, 2024, the National Weather Service National Data Buoy Center will discontinue its Dial-A-Buoy Interactive Voice Response system. For more information, see Service Change Notice 24-06 (PDF).

Station PAUA2 - ST PAUL MXAK, AK Image indicating link to RSS feed of recent meteorological observations for station PAUA2


Conditions at PAUA2 as of
2205 GMT on 02/27/2024:
     

Click on the graph icon in the table below to see a time series plot of the last five days of that observation.

5-day plot - Wind Direction Wind Direction (WDIR): NW ( 320 deg true )
5-day plot - Wind Speed Wind Speed (WSPD): 15.9 kts
5-day plot - Wind Gust Wind Gust (GST): 24.1 kts
5-day plot - Air Temperature Air Temperature (ATMP): 22.8 °F
5-day plot - Dew Point Dew Point (DEWP): 16.5 °F
5-day plot - Wind Chill Wind Chill (CHILL): 8.6 °F
5-day plot - Wind Speed at 10 Meters Wind Speed at 10 meters (WSPD10M): 13.6 kts
5-day plot - Wind Speed at 20 Meters Wind Speed at 20 meters (WSPD20M): 15.5 kts
5-day plot -  Wind Speed, Wind Gust and Atmospheric Pressure Combined plot of Wind Speed, Gust, and Air Pressure
Previous observations
TIME
(GMT)
5-day plot - Wind Direction
WDIR
 
5-day plot - Wind Speed
WSPD
kts
5-day plot - Wind Gust
GST
kts
5-day plot - Wave Height
WVHT
ft
5-day plot - Dominant Wave Period
DPD
sec
5-day plot - Average Wave Period
APD
sec
5-day plot - Mean Wave Direction
MWD
 
5-day plot - Atmospheric Pressure
PRES
in
5-day plot - Pressure Tendency
PTDY
in
5-day plot - Air Temperature
ATMP
°F
5-day plot - Water Temperature
WTMP
°F
5-day plot - Dew Point
DEWP
°F
5-day plot - Salinity
SAL
psu
5-day plot - Visibility
VIS
nmi
5-day plot - Tide (above MLLW)
TIDE
ft
2024-02-27 2155 NW 15.0 22.0------ 23.0- 17.6---
2024-02-27 2145 NW 18.1 27.0------ 22.8- 16.7---
2024-02-27 2135NNW 15.0 26.0------ 22.6- 18.3---
2024-02-27 2125NNW 15.0 22.9------ 22.6- 17.4---
2024-02-27 2115NNW 15.0 21.0------ 22.5- 16.7---
2024-02-27 2105 NW 14.0 20.0------ 22.5- 16.2---
2024-02-27 2055NNW 14.0 22.9------ 21.9- 19.4---
2024-02-27 2045NNW 15.0 22.9------ 21.7- 19.2---
2024-02-27 2035NNW 15.9 24.1------ 22.1- 18.0---
2024-02-27 2025 NW 17.1 24.1------ 22.5- 15.8---
2024-02-27 2015NNW 15.9 24.1------ 22.3- 15.6---
2024-02-27 2005 NW 17.1 25.1------ 22.3- 16.2---
2024-02-27 1955NNW 17.1 22.9------ 22.1- 15.3---
2024-02-27 1945NNW 15.0 22.0------ 22.3- 16.5---
2024-02-27 1935NNW 13.0 22.0------ 21.9- 17.6---
2024-02-27 1925NNW 15.9 22.9------ 22.3- 15.8---
2024-02-27 1905NNW 15.0 22.9------ 22.3- 16.0---
2024-02-27 1855NNW 15.9 22.9------ 22.3- 15.4---
2024-02-27 1845NNW 15.0 22.0------ 22.5- 15.3---
2024-02-27 1835NNW 13.0 22.0------ 22.3- 14.5---
2024-02-27 1825NNW 14.0 24.1------ 22.5- 15.4---
2024-02-27 1815NNW 15.0 22.9------ 22.6- 15.6---
2024-02-27 1805NNW 13.0 19.0------ 22.8- 16.3---
2024-02-27 1755NNW 14.0 21.0------ 22.8- 15.6---
2024-02-27 1745NNW 15.9 22.9------ 23.2- 16.3---
2024-02-27 1735 NW 15.0 22.0------ 23.2- 17.1---
2024-02-27 1732 NW 15.0 22.0------ 23.2- 17.1---
2024-02-27 1725NNW 18.1 26.0------ 23.4- 16.7---
2024-02-27 1717 NW 18.1 28.9------ 23.9- 16.9---
2024-02-27 1706 NW 24.1 33.0------ 24.1- 16.9---
2024-02-27 1657 NW 18.1 27.0------ 24.1- 18.1---
2024-02-27 1649NNW 18.1 25.1------ 23.7- 18.3---
2024-02-27 1636NNW 17.1 25.1------ 23.9- 18.1---
2024-02-27 1626NNW 19.0 26.0------ 24.1- 18.7---
2024-02-27 1616NNW 14.0 22.0------ 24.1- 18.9---
2024-02-27 1559NNW 15.0 24.1------ 24.3- 18.7---
2024-02-27 1548NNW 15.9 24.1------ 24.6- 18.9---
2024-02-27 1535NNW 14.0 21.0------ 24.6- 18.7---
2024-02-27 1525NNW 12.0 17.1------ 24.4- 18.9---
2024-02-27 1515NNW 12.0 19.0------ 24.3- 19.0---
2024-02-27 1505NNW 11.1 18.1------ 24.3- 19.2---
2024-02-27 1455NNW 12.0 17.1------ 24.1- 19.6---
2024-02-27 1445NNW 12.0 15.9------ 23.9- 19.8---
2024-02-27 1435NNW 11.1 15.9------ 24.1- 19.6---
2024-02-27 1425NNW 8.0 13.0------ 23.9- 19.4---
2024-02-27 1415 N 7.0 12.0------ 23.5- 19.8---
2024-02-27 1405 N 7.0 11.1------ 23.7- 19.8---
2024-02-27 1355 N 7.0 12.0------ 23.7- 19.8---
2024-02-27 1345 N 7.0 11.1------ 23.7- 19.9---
2024-02-27 1335 N 7.0 9.9------ 23.7- 19.8---
2024-02-27 1325 N 8.0 13.0------ 23.7- 19.4---
2024-02-27 1315 N 9.9 14.0------ 23.9- 19.0---
2024-02-27 1305 N 8.0 13.0------ 23.9- 18.7---
2024-02-27 1255 N 8.9 17.1------ 24.3- 18.5---
2024-02-27 1245NNW 9.9 14.0------ 24.4- 18.3---
2024-02-27 1235NNW 9.9 14.0------ 24.4- 18.5---
2024-02-27 1225NNW 9.9 14.0------ 24.3- 18.3---
2024-02-27 1215 N 8.0 13.0------ 23.9- 18.7---
2024-02-27 1205 N 8.0 11.1------ 24.1- 19.2---
2024-02-27 1155NNW 9.9 14.0------ 24.3- 19.0---
2024-02-27 1145NNW 11.1 15.9------ 24.3- 19.2---
2024-02-27 1135NNW 9.9 13.0------ 24.4- 19.4---
2024-02-27 1125NNW 9.9 14.0------ 24.6- 19.0---
2024-02-27 1117NNW 9.9 14.0------ 24.4- 19.4---
2024-02-27 1108NNW 11.1 15.9------ 24.6- 19.4---
2024-02-27 1056NNW 11.1 15.9------ 25.0- 19.4---
2024-02-27 1047NNW 11.1 15.0------ 25.2- 19.6---
2024-02-27 1037NNW 11.1 17.1------ 25.3- 19.4---
2024-02-27 1028NNW 11.1 17.1------ 25.2- 19.0---
2024-02-27 1019NNW 12.0 15.9------ 25.3- 18.7---
2024-02-27 1010NNW 12.0 15.9------ 25.3- 18.7---
2024-02-27 0958NNW 12.0 18.1------ 25.3- 18.7---
2024-02-27 0947NNW 12.0 18.1------ 25.3- 18.5---
2024-02-27 0946NNW 12.0 18.1------ 25.3- 18.5---
2024-02-27 0925NNW 11.1 17.1------ 25.2- 19.8---
2024-02-27 0905NNW 9.9 15.9------ 25.0- 20.1---
2024-02-27 0855NNW 11.1 17.1------ 24.8- 20.1---
2024-02-27 0845NNW 11.1 17.1------ 25.0- 20.1---
2024-02-27 0835NNW 9.9 15.9------ 24.8- 20.8---
2024-02-27 0825NNW 9.9 15.0------ 24.6- 21.7---
2024-02-27 0815NNW 11.1 17.1------ 25.2- 21.6---
2024-02-27 0806NNW 12.0 19.0------ 25.3- 20.8---
2024-02-27 0755NNW 9.9 14.0------ 25.2- 21.7---
2024-02-27 0745NNW 9.9 15.0------ 25.0- 21.9---
2024-02-27 0735NNW 11.1 17.1------ 24.8- 21.9---
2024-02-27 0726NNW 12.0 18.1------ 25.0- 22.3---
2024-02-27 0716NNW 11.1 18.1------ 25.2- 22.6---
2024-02-27 0707 NW 11.1 15.9------ 25.9- 21.2---
2024-02-27 0657NNW 12.0 15.9------ 25.7- 22.3---
2024-02-27 0646 NW 11.1 15.0------ 25.9- 21.9---
2024-02-27 0638NNW 9.9 15.0------ 25.5- 22.5---
2024-02-27 0629NNW 9.9 14.0------ 25.2- 23.2---
2024-02-27 0619NNW 9.9 14.0------ 25.3- 22.6---
2024-02-27 0610NNW 9.9 14.0------ 25.3- 22.6---
2024-02-27 0559NNW 8.9 13.0------ 25.0- 22.6---
2024-02-27 0549NNW 9.9 14.0------ 25.2- 23.0---
2024-02-27 0541NNW 9.9 14.0------ 25.2- 23.0---
2024-02-27 0532NNW 8.9 14.0------ 25.2- 22.8---
2024-02-27 0525NNW 8.9 13.0------ 24.8- 22.8---
2024-02-27 0515NNW 11.1 15.0------ 25.0- 23.2---
2024-02-27 0502NNW 8.9 14.0------ 25.2- 23.2---
2024-02-27 0453NNW 8.9 13.0------ 25.0- 23.5---
2024-02-27 0446NNW 11.1 17.1------ 25.3- 23.7---
2024-02-27 0435NNW 9.9 18.1------ 25.5- 23.7---
2024-02-27 0425NNW 9.9 14.0------ 25.5- 23.5---
2024-02-27 0416NNW 11.1 15.0------ 25.5- 23.4---
2024-02-27 0359NNW 12.0 17.1------ 25.9- 23.5---
2024-02-27 0346NNW 12.0 15.9------ 26.1- 23.9---
2024-02-27 0335NNW 11.1 15.0------ 26.1- 24.1---
2024-02-27 0325NNW 12.0 17.1------ 26.1- 24.3---
2024-02-27 0315NNW 11.1 17.1------ 26.4- 25.3---
2024-02-27 0305 NW 11.1 17.1------ 26.6- 25.3---
2024-02-27 0255 NW 9.9 14.0------ 26.6- 25.5---
2024-02-27 0245 NW 13.0 18.1------ 26.4- 25.5---
2024-02-27 0235NNW 11.1 15.0------ 26.4- 25.3---
2024-02-27 0225NNW 12.0 17.1------ 26.4- 25.2---
2024-02-27 0205 NW 13.0 17.1------ 26.4- 25.3---
2024-02-27 0155 NW 12.0 17.1------ 26.6- 25.0---
2024-02-27 0145 NW 13.0 20.0------ 26.6- 24.1---
2024-02-27 0135 NW 13.0 18.1------ 26.8- 23.9---
2024-02-27 0125 NW 13.0 19.0------ 27.0- 24.3---
2024-02-27 0115 NW 13.0 18.1------ 27.0- 24.1---
2024-02-27 0105 NW 12.0 17.1------ 26.8- 24.4---
2024-02-27 0055 NW 14.0 20.0------ 26.8- 24.1---
2024-02-27 0045NNW 14.0 19.0------ 26.6- 24.1---
2024-02-27 0035 NW 14.0 21.0------ 26.8- 23.9---
2024-02-27 0025 NW 15.9 21.0------ 26.8- 23.7---
2024-02-27 0015 NW 15.0 22.0------ 26.8- 23.9---
2024-02-26 2355 NW 15.9 22.9------ 26.8- 23.9---
2024-02-26 2345NNW 15.9 22.0------ 26.6- 23.5---
2024-02-26 2336 NW 15.9 22.0------ 26.8- 23.9---
2024-02-26 2326 NW 17.1 24.1------ 26.8- 23.9---
2024-02-26 2317 NW 18.1 25.1------ 26.8- 23.5---
2024-02-26 2309NNW 17.1 25.1------ 26.8- 23.5---
2024-02-26 2256NNW 17.1 25.1------ 26.6- 23.4---
2024-02-26 2246NNW 15.9 22.9------ 26.8- 23.5---
2024-02-26 2230NNW 17.1 24.1------ 26.8- 23.5---
2024-02-26 2221NNW 17.1 25.1------ 26.8- 23.7---
2024-02-26 2211NNW 15.9 24.1------ 26.4- 24.1---
2024-02-26 2158NNW 15.0 22.0------ 26.6- 24.3---